EZY64HD EGGD-LMML
Flight info
| Callsign | EZY64HD |
|---|---|
| Flight time | 2h 44m |
| Altitude | 35000 |
| Route | YORQI L607 ALHAD UN859 VAPID L18 MID UL612 OGULO DCT OKASI DCT OKEKO DCT MOU DCT MADIV DCT MOKIP DCT TUFTA DCT KOGAS DCT MEDAM DCT NITAM DCT MOGBO DCT KONER DCT POKAV DCT PAL DCT MARON DCT EKOLA L12 GZO |
| Aircraft | A320/M-SDE2E3FGHIJ1RWXYZ/LB1 |
Departure
| Time | 2026-05-04 11:41 |
|---|---|
| Airport | Bristol Airport (EGGD) |
Arrival
| Time | 2026-05-04 14:26 |
|---|---|
| Airport | Malta International Airport (LMML) |
| Time | Latitude | Longitude | Altitude | Speed | Heading |
|---|---|---|---|---|---|
| 2026-05-04 10:44 | 51.38551 | -2.71085 | 596 ft | 0 kts | 356° |
| 2026-05-04 11:33 | 51.38471 | -2.71046 | 600 ft | 2 kts | 303° |
| 2026-05-04 11:33 | 51.38464 | -2.71024 | 600 ft | 2 kts | 287° |
| 2026-05-04 11:33 | 51.38461 | -2.71000 | 600 ft | 1 kts | 270° |
| 2026-05-04 11:34 | 51.38461 | -2.70989 | 600 ft | 1 kts | 264° |
| 2026-05-04 11:34 | 51.38461 | -2.70986 | 600 ft | 0 kts | 265° |
| 2026-05-04 11:36 | 51.38460 | -2.71022 | 600 ft | 6 kts | 265° |
| 2026-05-04 11:36 | 51.38456 | -2.71096 | 600 ft | 6 kts | 265° |
| 2026-05-04 11:36 | 51.38452 | -2.71180 | 600 ft | 8 kts | 266° |
| 2026-05-04 11:36 | 51.38448 | -2.71289 | 598 ft | 11 kts | 266° |
| 2026-05-04 11:37 | 51.38443 | -2.71418 | 598 ft | 11 kts | 266° |
| 2026-05-04 11:37 | 51.38440 | -2.71550 | 599 ft | 11 kts | 267° |
| 2026-05-04 11:37 | 51.38436 | -2.71668 | 600 ft | 10 kts | 266° |
| 2026-05-04 11:37 | 51.38432 | -2.71779 | 603 ft | 8 kts | 266° |
| 2026-05-04 11:38 | 51.38430 | -2.71874 | 604 ft | 8 kts | 269° |
| 2026-05-04 11:38 | 51.38430 | -2.71994 | 604 ft | 11 kts | 269° |
| 2026-05-04 11:38 | 51.38428 | -2.72113 | 606 ft | 9 kts | 265° |
| 2026-05-04 11:38 | 51.38423 | -2.72219 | 608 ft | 9 kts | 265° |
| 2026-05-04 11:39 | 51.38419 | -2.72338 | 610 ft | 11 kts | 266° |
| 2026-05-04 11:39 | 51.38414 | -2.72459 | 612 ft | 10 kts | 266° |
| 2026-05-04 11:40 | 51.38215 | -2.73261 | 600 ft | 13 kts | 88° |
| 2026-05-04 11:41 | 51.38232 | -2.72807 | 616 ft | 74 kts | 86° |
| 2026-05-04 11:41 | 51.38280 | -2.71574 | 603 ft | 139 kts | 86° |
| 2026-05-04 11:41 | 51.38351 | -2.69876 | 1003 ft | 153 kts | 84° |
| 2026-05-04 11:41 | 51.38405 | -2.68136 | 1625 ft | 155 kts | 85° |
| 2026-05-04 11:42 | 51.38454 | -2.66393 | 2306 ft | 155 kts | 84° |
| 2026-05-04 11:42 | 51.38505 | -2.64604 | 2740 ft | 165 kts | 84° |
| 2026-05-04 11:42 | 51.38567 | -2.62629 | 3075 ft | 182 kts | 83° |
| 2026-05-04 11:42 | 51.38636 | -2.60455 | 3401 ft | 201 kts | 83° |
| 2026-05-04 11:43 | 51.38709 | -2.58151 | 3804 ft | 216 kts | 82° |
| 2026-05-04 11:43 | 51.38834 | -2.56267 | 4045 ft | 231 kts | 76° |
| 2026-05-04 11:43 | 51.39695 | -2.52588 | 4677 ft | 252 kts | 57° |
| 2026-05-04 11:44 | 51.40729 | -2.49281 | 5677 ft | 259 kts | 60° |
| 2026-05-04 11:44 | 51.41483 | -2.46611 | 6246 ft | 271 kts | 60° |
| 2026-05-04 11:44 | 51.42027 | -2.44703 | 6702 ft | 277 kts | 60° |
| 2026-05-04 11:44 | 51.42759 | -2.42150 | 7435 ft | 279 kts | 59° |
| 2026-05-04 11:45 | 51.43518 | -2.39534 | 8055 ft | 286 kts | 59° |
| 2026-05-04 11:45 | 51.44424 | -2.36439 | 8727 ft | 294 kts | 59° |
| 2026-05-04 11:45 | 51.45388 | -2.33152 | 9415 ft | 303 kts | 61° |
| 2026-05-04 11:45 | 51.46508 | -2.29306 | 10229 ft | 311 kts | 62° |
| 2026-05-04 11:46 | 51.47416 | -2.26200 | 10660 ft | 324 kts | 62° |
| 2026-05-04 11:46 | 51.48523 | -2.22410 | 11018 ft | 344 kts | 63° |
| 2026-05-04 11:46 | 51.49541 | -2.18838 | 11517 ft | 355 kts | 68° |
| 2026-05-04 11:46 | 51.50170 | -2.14988 | 12142 ft | 360 kts | 85° |
| 2026-05-04 11:47 | 51.50172 | -2.11030 | 12799 ft | 362 kts | 98° |
| 2026-05-04 11:47 | 51.49869 | -2.06986 | 13432 ft | 366 kts | 101° |
| 2026-05-04 11:47 | 51.49509 | -2.02909 | 14025 ft | 371 kts | 101° |
| 2026-05-04 11:47 | 51.49169 | -1.98794 | 14619 ft | 377 kts | 100° |
| 2026-05-04 11:48 | 51.48852 | -1.94597 | 15210 ft | 382 kts | 100° |
| 2026-05-04 11:48 | 51.48546 | -1.90366 | 15784 ft | 387 kts | 99° |
| 2026-05-04 11:48 | 51.48234 | -1.86016 | 16357 ft | 392 kts | 100° |
| 2026-05-04 11:48 | 51.47923 | -1.81690 | 16910 ft | 396 kts | 100° |
| 2026-05-04 11:49 | 51.47609 | -1.77387 | 17442 ft | 401 kts | 100° |
| 2026-05-04 11:49 | 51.47282 | -1.72926 | 17978 ft | 406 kts | 100° |
| 2026-05-04 11:49 | 51.46934 | -1.68454 | 18500 ft | 409 kts | 102° |
| 2026-05-04 11:49 | 51.46428 | -1.63970 | 19016 ft | 412 kts | 106° |
| 2026-05-04 11:50 | 51.45828 | -1.59512 | 19519 ft | 416 kts | 107° |
| 2026-05-04 11:50 | 51.45195 | -1.54991 | 20015 ft | 420 kts | 107° |
| 2026-05-04 11:50 | 51.44552 | -1.50393 | 20506 ft | 425 kts | 107° |
| 2026-05-04 11:50 | 51.43919 | -1.45813 | 20982 ft | 429 kts | 107° |
| 2026-05-04 11:51 | 51.43279 | -1.41160 | 21452 ft | 433 kts | 107° |
| 2026-05-04 11:51 | 51.42630 | -1.36449 | 21916 ft | 437 kts | 107° |
| 2026-05-04 11:51 | 51.41984 | -1.31762 | 22363 ft | 441 kts | 108° |
| 2026-05-04 11:51 | 51.41333 | -1.27059 | 22812 ft | 444 kts | 108° |
| 2026-05-04 11:52 | 51.40663 | -1.22240 | 23264 ft | 447 kts | 108° |
| 2026-05-04 11:52 | 51.39755 | -1.17553 | 23643 ft | 439 kts | 125° |
| 2026-05-04 11:52 | 51.38027 | -1.13779 | 24016 ft | 415 kts | 149° |
| 2026-05-04 11:52 | 51.35712 | -1.11395 | 24434 ft | 391 kts | 168° |
| 2026-05-04 11:53 | 51.33211 | -1.09512 | 24835 ft | 403 kts | 161° |
| 2026-05-04 11:53 | 51.31658 | -1.07776 | 25032 ft | 419 kts | 152° |
| 2026-05-04 11:53 | 51.28685 | -1.03642 | 25561 ft | 427 kts | 149° |
| 2026-05-04 11:53 | 51.26447 | -1.00481 | 25925 ft | 430 kts | 150° |
| 2026-05-04 11:55 | 51.09862 | -0.79030 | 28338 ft | 446 kts | 154° |
| 2026-05-04 11:55 | 51.07399 | -0.75931 | 28665 ft | 448 kts | 154° |
| 2026-05-04 11:56 | 51.04949 | -0.72852 | 28977 ft | 451 kts | 154° |
| 2026-05-04 11:56 | 51.02450 | -0.69719 | 29213 ft | 455 kts | 154° |
| 2026-05-04 11:56 | 50.99915 | -0.66558 | 29356 ft | 462 kts | 154° |
| 2026-05-04 11:56 | 50.97340 | -0.63349 | 29498 ft | 468 kts | 153° |
| 2026-05-04 11:57 | 50.94770 | -0.60145 | 29692 ft | 472 kts | 153° |
| 2026-05-04 11:57 | 50.92157 | -0.56881 | 30026 ft | 473 kts | 152° |
| 2026-05-04 11:57 | 50.89568 | -0.53644 | 30430 ft | 471 kts | 152° |
| 2026-05-04 11:57 | 50.86966 | -0.50406 | 30843 ft | 470 kts | 152° |
| 2026-05-04 11:58 | 50.84377 | -0.47194 | 31222 ft | 469 kts | 152° |
| 2026-05-04 11:58 | 50.81777 | -0.43972 | 31579 ft | 469 kts | 153° |
| 2026-05-04 11:58 | 50.79176 | -0.40753 | 31923 ft | 468 kts | 153° |
| 2026-05-04 11:58 | 50.76618 | -0.37589 | 32254 ft | 468 kts | 153° |
| 2026-05-04 11:59 | 50.74015 | -0.34375 | 32524 ft | 469 kts | 154° |
| 2026-05-04 11:59 | 50.68790 | -0.27922 | 32713 ft | 478 kts | 154° |
| 2026-05-04 12:00 | 50.63459 | -0.21359 | 32926 ft | 484 kts | 154° |
| 2026-05-04 12:00 | 50.60798 | -0.18091 | 33112 ft | 485 kts | 154° |
| 2026-05-04 12:00 | 50.58076 | -0.14752 | 33323 ft | 485 kts | 154° |
| 2026-05-04 12:00 | 50.55395 | -0.11473 | 33506 ft | 485 kts | 154° |
| 2026-05-04 12:01 | 50.52708 | -0.08196 | 33667 ft | 486 kts | 154° |
| 2026-05-04 12:01 | 50.50022 | -0.04924 | 33822 ft | 487 kts | 154° |
| 2026-05-04 12:02 | 50.33327 | 0.13261 | 34664 ft | 483 kts | 159° |
| 2026-05-04 12:03 | 50.30552 | 0.16120 | 34786 ft | 483 kts | 159° |
| 2026-05-04 12:03 | 50.27726 | 0.19027 | 34907 ft | 484 kts | 159° |
| 2026-05-04 12:03 | 50.22024 | 0.24879 | 34983 ft | 485 kts | 158° |
| 2026-05-04 12:04 | 50.16376 | 0.30682 | 34995 ft | 485 kts | 158° |
| 2026-05-04 12:04 | 50.10734 | 0.36484 | 35000 ft | 485 kts | 158° |
| 2026-05-04 12:05 | 50.05100 | 0.42256 | 35003 ft | 485 kts | 158° |
| 2026-05-04 12:05 | 49.99475 | 0.47998 | 35004 ft | 485 kts | 158° |
| 2026-05-04 12:06 | 49.93825 | 0.53748 | 35004 ft | 485 kts | 158° |
| 2026-05-04 12:06 | 49.88166 | 0.59487 | 35002 ft | 486 kts | 158° |
| 2026-05-04 12:07 | 49.82700 | 0.65691 | 34996 ft | 496 kts | 153° |
| 2026-05-04 12:07 | 49.77388 | 0.72418 | 34991 ft | 495 kts | 152° |
| 2026-05-04 12:08 | 49.72039 | 0.79174 | 34985 ft | 495 kts | 152° |
| 2026-05-04 12:08 | 49.66659 | 0.85918 | 34981 ft | 495 kts | 153° |
| 2026-05-04 12:09 | 49.61272 | 0.92640 | 34980 ft | 495 kts | 153° |
| 2026-05-04 12:09 | 49.55907 | 0.99313 | 34978 ft | 495 kts | 152° |
| 2026-05-04 12:10 | 49.50503 | 1.06008 | 34978 ft | 498 kts | 152° |
| 2026-05-04 12:10 | 49.45114 | 1.12671 | 34978 ft | 501 kts | 152° |
| 2026-05-04 12:11 | 49.39674 | 1.19382 | 34978 ft | 503 kts | 151° |
| 2026-05-04 12:11 | 49.34246 | 1.26065 | 34979 ft | 504 kts | 151° |
| 2026-05-04 12:12 | 49.28781 | 1.32776 | 34979 ft | 505 kts | 151° |
| 2026-05-04 12:12 | 49.23394 | 1.39367 | 34979 ft | 505 kts | 151° |
| 2026-05-04 12:14 | 49.01831 | 1.65524 | 34969 ft | 500 kts | 149° |
| 2026-05-04 12:15 | 48.96474 | 1.72012 | 34962 ft | 496 kts | 148° |
| 2026-05-04 12:15 | 48.91141 | 1.78458 | 34957 ft | 494 kts | 148° |
| 2026-05-04 12:16 | 48.85867 | 1.84780 | 34959 ft | 494 kts | 148° |
| 2026-05-04 12:16 | 48.80553 | 1.91112 | 34964 ft | 494 kts | 148° |
| 2026-05-04 12:17 | 48.75202 | 1.97484 | 34972 ft | 494 kts | 148° |
| 2026-05-04 12:17 | 48.69846 | 2.03851 | 34978 ft | 494 kts | 148° |
| 2026-05-04 12:18 | 48.64590 | 2.10082 | 34981 ft | 494 kts | 148° |
| 2026-05-04 12:18 | 48.59231 | 2.16428 | 34982 ft | 494 kts | 147° |
| 2026-05-04 12:19 | 48.54108 | 2.23341 | 34984 ft | 500 kts | 141° |
| 2026-05-04 12:19 | 48.49186 | 2.30837 | 34984 ft | 501 kts | 140° |
| 2026-05-04 12:20 | 48.44326 | 2.38232 | 34982 ft | 500 kts | 140° |
| 2026-05-04 12:20 | 48.39426 | 2.45634 | 34981 ft | 500 kts | 140° |
| 2026-05-04 12:21 | 48.34541 | 2.52962 | 34980 ft | 499 kts | 142° |
| 2026-05-04 12:21 | 48.29304 | 2.59711 | 34982 ft | 493 kts | 149° |
| 2026-05-04 12:22 | 48.23656 | 2.65354 | 34982 ft | 486 kts | 157° |
| 2026-05-04 12:22 | 48.17807 | 2.70154 | 34984 ft | 484 kts | 159° |
| 2026-05-04 12:23 | 48.11886 | 2.74954 | 34984 ft | 484 kts | 159° |
| 2026-05-04 12:23 | 48.05904 | 2.79404 | 34984 ft | 478 kts | 164° |
| 2026-05-04 12:24 | 47.99784 | 2.83295 | 34984 ft | 478 kts | 164° |
| 2026-05-04 12:24 | 47.93667 | 2.87168 | 34984 ft | 478 kts | 164° |
| 2026-05-04 12:25 | 47.87583 | 2.91014 | 34982 ft | 479 kts | 164° |
| 2026-05-04 12:25 | 47.81440 | 2.94880 | 34980 ft | 480 kts | 164° |
| 2026-05-04 12:26 | 47.75346 | 2.98714 | 34977 ft | 481 kts | 164° |
| 2026-05-04 12:26 | 47.69165 | 3.02599 | 34973 ft | 482 kts | 164° |
| 2026-05-04 12:27 | 47.62960 | 3.06490 | 34971 ft | 484 kts | 163° |
| 2026-05-04 12:27 | 47.56795 | 3.10345 | 34971 ft | 485 kts | 163° |
| 2026-05-04 12:28 | 47.50572 | 3.14228 | 34973 ft | 486 kts | 163° |
| 2026-05-04 12:28 | 47.44328 | 3.18115 | 34975 ft | 486 kts | 163° |
| 2026-05-04 12:29 | 47.38102 | 3.21979 | 34977 ft | 486 kts | 163° |
| 2026-05-04 12:29 | 47.31831 | 3.25859 | 34977 ft | 486 kts | 163° |
| 2026-05-04 12:30 | 47.25663 | 3.29666 | 34977 ft | 486 kts | 163° |
| 2026-05-04 12:30 | 47.19385 | 3.33530 | 34977 ft | 486 kts | 163° |
| 2026-05-04 12:31 | 47.13083 | 3.37399 | 34977 ft | 486 kts | 163° |
| 2026-05-04 12:31 | 47.06856 | 3.41213 | 34977 ft | 486 kts | 163° |
| 2026-05-04 12:32 | 46.97463 | 3.46949 | 34974 ft | 490 kts | 164° |
| 2026-05-04 12:33 | 46.91077 | 3.50833 | 34973 ft | 497 kts | 164° |
| 2026-05-04 12:33 | 46.84817 | 3.54620 | 34975 ft | 504 kts | 164° |
| 2026-05-04 12:34 | 46.78389 | 3.58813 | 34975 ft | 512 kts | 155° |
| 2026-05-04 12:34 | 46.72816 | 3.65309 | 34979 ft | 527 kts | 136° |
| 2026-05-04 12:34 | 46.70617 | 3.69491 | 34977 ft | 532 kts | 125° |
| 2026-05-04 12:35 | 46.68921 | 3.74092 | 34977 ft | 533 kts | 114° |
| 2026-05-04 12:35 | 46.66909 | 3.84123 | 34981 ft | 530 kts | 101° |
| 2026-05-04 12:36 | 46.65341 | 3.94609 | 34978 ft | 530 kts | 103° |
| 2026-05-04 12:36 | 46.63597 | 4.04873 | 34977 ft | 529 kts | 104° |
| 2026-05-04 12:37 | 46.61783 | 4.15205 | 34977 ft | 529 kts | 104° |
| 2026-05-04 12:37 | 46.60014 | 4.25264 | 34977 ft | 530 kts | 103° |
| 2026-05-04 12:38 | 46.58208 | 4.35511 | 34977 ft | 530 kts | 103° |
| 2026-05-04 12:38 | 46.56378 | 4.45871 | 34977 ft | 529 kts | 104° |
| 2026-05-04 12:39 | 46.54537 | 4.56203 | 34977 ft | 529 kts | 104° |
| 2026-05-04 12:39 | 46.52693 | 4.66490 | 34976 ft | 529 kts | 105° |
| 2026-05-04 12:40 | 46.50856 | 4.76739 | 34982 ft | 529 kts | 105° |
| 2026-05-04 12:40 | 46.49015 | 4.86925 | 34994 ft | 529 kts | 105° |
| 2026-05-04 12:41 | 46.47170 | 4.97052 | 35001 ft | 520 kts | 104° |
| 2026-05-04 12:41 | 46.45355 | 5.06968 | 35006 ft | 508 kts | 104° |
| 2026-05-04 12:42 | 46.43555 | 5.16747 | 35011 ft | 506 kts | 104° |
| 2026-05-04 12:42 | 46.41731 | 5.26595 | 35012 ft | 506 kts | 104° |
| 2026-05-04 12:43 | 46.39564 | 5.36095 | 35007 ft | 505 kts | 115° |
| 2026-05-04 12:43 | 46.35838 | 5.44424 | 35015 ft | 501 kts | 135° |
| 2026-05-04 12:44 | 46.30981 | 5.51343 | 35030 ft | 500 kts | 139° |
| 2026-05-04 12:44 | 46.26039 | 5.58104 | 35041 ft | 500 kts | 139° |
| 2026-05-04 12:45 | 46.21112 | 5.64923 | 35049 ft | 500 kts | 138° |
| 2026-05-04 12:45 | 46.16257 | 5.71710 | 35048 ft | 499 kts | 139° |
| 2026-05-04 12:46 | 46.11421 | 5.78466 | 35039 ft | 499 kts | 139° |
| 2026-05-04 12:46 | 46.06516 | 5.85289 | 35022 ft | 499 kts | 139° |
| 2026-05-04 12:47 | 46.01561 | 5.92158 | 35007 ft | 500 kts | 139° |
| 2026-05-04 12:47 | 45.96614 | 5.98996 | 34997 ft | 500 kts | 139° |
| 2026-05-04 12:48 | 45.91653 | 6.05834 | 34991 ft | 500 kts | 139° |
| 2026-05-04 12:48 | 45.86705 | 6.12619 | 34988 ft | 500 kts | 139° |
| 2026-05-04 12:49 | 45.81741 | 6.19389 | 34987 ft | 500 kts | 139° |
| 2026-05-04 12:49 | 45.76784 | 6.26156 | 34986 ft | 500 kts | 139° |
| 2026-05-04 12:50 | 45.71795 | 6.32961 | 34986 ft | 500 kts | 139° |
| 2026-05-04 12:50 | 45.66824 | 6.39724 | 34986 ft | 500 kts | 139° |
| 2026-05-04 12:51 | 45.61829 | 6.46505 | 34986 ft | 500 kts | 139° |
| 2026-05-04 12:51 | 45.56902 | 6.53176 | 34987 ft | 500 kts | 139° |
| 2026-05-04 12:52 | 45.51859 | 6.59987 | 34999 ft | 500 kts | 139° |
| 2026-05-04 12:52 | 45.46880 | 6.66698 | 35020 ft | 500 kts | 139° |
| 2026-05-04 12:53 | 45.41917 | 6.73396 | 35049 ft | 500 kts | 139° |
| 2026-05-04 12:53 | 45.36894 | 6.80140 | 35076 ft | 500 kts | 140° |
| 2026-05-04 12:54 | 45.31868 | 6.86854 | 35093 ft | 499 kts | 140° |
| 2026-05-04 12:54 | 45.26849 | 6.93547 | 35102 ft | 500 kts | 139° |
| 2026-05-04 12:55 | 45.21880 | 7.00370 | 35108 ft | 500 kts | 139° |
| 2026-05-04 12:55 | 45.16861 | 7.07236 | 35110 ft | 502 kts | 138° |
| 2026-05-04 12:56 | 45.11917 | 7.14247 | 35111 ft | 504 kts | 134° |
| 2026-05-04 12:56 | 45.07510 | 7.21959 | 35111 ft | 507 kts | 126° |
| 2026-05-04 12:57 | 45.03464 | 7.30173 | 35113 ft | 508 kts | 125° |
| 2026-05-04 12:57 | 44.99384 | 7.38342 | 35112 ft | 508 kts | 127° |
| 2026-05-04 12:58 | 44.94807 | 7.45953 | 35114 ft | 508 kts | 134° |
| 2026-05-04 12:58 | 44.89965 | 7.53133 | 35114 ft | 508 kts | 134° |
| 2026-05-04 12:59 | 44.85075 | 7.60313 | 35112 ft | 508 kts | 134° |
| 2026-05-04 12:59 | 44.80192 | 7.67501 | 35112 ft | 508 kts | 135° |
| 2026-05-04 13:00 | 44.75353 | 7.74671 | 35112 ft | 508 kts | 135° |
| 2026-05-04 13:00 | 44.70531 | 7.81787 | 35113 ft | 508 kts | 135° |
| 2026-05-04 13:01 | 44.65662 | 7.88948 | 35113 ft | 508 kts | 135° |
| 2026-05-04 13:01 | 44.60803 | 7.96070 | 35112 ft | 508 kts | 135° |
| 2026-05-04 13:02 | 44.55918 | 8.03210 | 35113 ft | 508 kts | 135° |
| 2026-05-04 13:02 | 44.51053 | 8.10304 | 35113 ft | 508 kts | 135° |
| 2026-05-04 13:03 | 44.46121 | 8.17477 | 35113 ft | 508 kts | 135° |
| 2026-05-04 13:03 | 44.41177 | 8.24647 | 35113 ft | 508 kts | 135° |
| 2026-05-04 13:04 | 44.36246 | 8.31780 | 35113 ft | 508 kts | 135° |
| 2026-05-04 13:04 | 44.31257 | 8.38979 | 35113 ft | 508 kts | 135° |
| 2026-05-04 13:05 | 44.26280 | 8.46143 | 35113 ft | 508 kts | 135° |
| 2026-05-04 13:05 | 44.21267 | 8.53339 | 35113 ft | 508 kts | 135° |
| 2026-05-04 13:06 | 44.16273 | 8.60488 | 35113 ft | 508 kts | 135° |
| 2026-05-04 13:06 | 44.11299 | 8.67599 | 35111 ft | 508 kts | 135° |
| 2026-05-04 13:07 | 44.06314 | 8.74731 | 35112 ft | 508 kts | 136° |
| 2026-05-04 13:07 | 44.01281 | 8.81896 | 35113 ft | 508 kts | 136° |
| 2026-05-04 13:08 | 43.96274 | 8.88993 | 35112 ft | 508 kts | 136° |
| 2026-05-04 13:08 | 43.91266 | 8.96066 | 35112 ft | 508 kts | 135° |
| 2026-05-04 13:09 | 43.86227 | 9.03140 | 35111 ft | 509 kts | 135° |
| 2026-05-04 13:09 | 43.81160 | 9.10230 | 35112 ft | 509 kts | 134° |
| 2026-05-04 13:10 | 43.76113 | 9.17301 | 35112 ft | 509 kts | 134° |
| 2026-05-04 13:10 | 43.71052 | 9.24388 | 35112 ft | 509 kts | 134° |
| 2026-05-04 13:11 | 43.65995 | 9.31449 | 35113 ft | 510 kts | 134° |
| 2026-05-04 13:11 | 43.60908 | 9.38532 | 35112 ft | 509 kts | 134° |
| 2026-05-04 13:12 | 43.55841 | 9.45549 | 35112 ft | 509 kts | 136° |
| 2026-05-04 13:12 | 43.50409 | 9.52013 | 35112 ft | 509 kts | 143° |
| 2026-05-04 13:13 | 43.44379 | 9.57501 | 35110 ft | 508 kts | 152° |
| 2026-05-04 13:13 | 43.38073 | 9.62136 | 35105 ft | 507 kts | 153° |
| 2026-05-04 13:14 | 43.31693 | 9.66769 | 35098 ft | 507 kts | 154° |
| 2026-05-04 13:14 | 43.25352 | 9.71415 | 35101 ft | 507 kts | 154° |
| 2026-05-04 13:15 | 43.19007 | 9.76050 | 35108 ft | 507 kts | 154° |
| 2026-05-04 13:15 | 43.12692 | 9.80645 | 35114 ft | 507 kts | 154° |
| 2026-05-04 13:16 | 43.06346 | 9.85247 | 35112 ft | 507 kts | 154° |
| 2026-05-04 13:16 | 43.00004 | 9.89832 | 35104 ft | 507 kts | 154° |
| 2026-05-04 13:17 | 42.93700 | 9.94380 | 35100 ft | 506 kts | 153° |
| 2026-05-04 13:17 | 42.87356 | 9.98942 | 35095 ft | 506 kts | 153° |
| 2026-05-04 13:18 | 42.81032 | 10.03466 | 35091 ft | 505 kts | 153° |
| 2026-05-04 13:18 | 42.74725 | 10.07977 | 35089 ft | 505 kts | 153° |
| 2026-05-04 13:19 | 42.68401 | 10.12497 | 35089 ft | 505 kts | 153° |
| 2026-05-04 13:19 | 42.62111 | 10.16984 | 35094 ft | 505 kts | 153° |
| 2026-05-04 13:20 | 42.55797 | 10.21477 | 35102 ft | 505 kts | 153° |
| 2026-05-04 13:20 | 42.49432 | 10.25998 | 35112 ft | 505 kts | 153° |
| 2026-05-04 13:21 | 42.43127 | 10.30465 | 35121 ft | 505 kts | 153° |
| 2026-05-04 13:21 | 42.36818 | 10.34925 | 35130 ft | 505 kts | 153° |
| 2026-05-04 13:22 | 42.30476 | 10.39397 | 35130 ft | 505 kts | 153° |
| 2026-05-04 13:22 | 42.24164 | 10.43839 | 35124 ft | 505 kts | 153° |
| 2026-05-04 13:23 | 42.17827 | 10.48288 | 35120 ft | 505 kts | 153° |
| 2026-05-04 13:23 | 42.11465 | 10.52744 | 35125 ft | 505 kts | 153° |
| 2026-05-04 13:24 | 42.05097 | 10.57194 | 35132 ft | 505 kts | 153° |
| 2026-05-04 13:24 | 41.99947 | 10.60786 | 35137 ft | 505 kts | 153° |
| 2026-05-04 13:25 | 41.90397 | 10.67442 | 35140 ft | 505 kts | 154° |
| 2026-05-04 13:25 | 41.84074 | 10.71840 | 35140 ft | 505 kts | 154° |
| 2026-05-04 13:26 | 41.77677 | 10.76264 | 35141 ft | 505 kts | 154° |
| 2026-05-04 13:26 | 41.71289 | 10.80673 | 35141 ft | 505 kts | 154° |
| 2026-05-04 13:27 | 41.64900 | 10.85071 | 35139 ft | 507 kts | 154° |
| 2026-05-04 13:27 | 41.58460 | 10.89496 | 35139 ft | 510 kts | 154° |
| 2026-05-04 13:28 | 41.51973 | 10.93943 | 35139 ft | 514 kts | 153° |
| 2026-05-04 13:28 | 41.45427 | 10.98422 | 35139 ft | 517 kts | 153° |
| 2026-05-04 13:29 | 41.38925 | 11.02861 | 35139 ft | 520 kts | 153° |
| 2026-05-04 13:29 | 41.32310 | 11.07369 | 35140 ft | 521 kts | 152° |
| 2026-05-04 13:30 | 41.25726 | 11.11847 | 35141 ft | 521 kts | 152° |
| 2026-05-04 13:30 | 41.19123 | 11.16326 | 35141 ft | 521 kts | 152° |
| 2026-05-04 13:31 | 41.12553 | 11.20770 | 35141 ft | 521 kts | 153° |
| 2026-05-04 13:31 | 41.05918 | 11.25246 | 35141 ft | 521 kts | 152° |
| 2026-05-04 13:32 | 40.99293 | 11.29705 | 35141 ft | 521 kts | 152° |
| 2026-05-04 13:32 | 40.92709 | 11.34132 | 35141 ft | 520 kts | 152° |
| 2026-05-04 13:33 | 40.86054 | 11.38584 | 35139 ft | 520 kts | 152° |
| 2026-05-04 13:33 | 40.79447 | 11.42967 | 35140 ft | 520 kts | 152° |
| 2026-05-04 13:34 | 40.72794 | 11.47357 | 35141 ft | 520 kts | 152° |
| 2026-05-04 13:34 | 40.66157 | 11.51729 | 35141 ft | 520 kts | 152° |
| 2026-05-04 13:35 | 40.56255 | 11.58244 | 35141 ft | 521 kts | 152° |
| 2026-05-04 13:36 | 40.49578 | 11.62624 | 35141 ft | 520 kts | 152° |
| 2026-05-04 13:36 | 40.42947 | 11.66976 | 35141 ft | 521 kts | 152° |
| 2026-05-04 13:37 | 40.36308 | 11.71346 | 35141 ft | 521 kts | 153° |
| 2026-05-04 13:37 | 40.29678 | 11.75681 | 35141 ft | 521 kts | 153° |
| 2026-05-04 13:38 | 40.23027 | 11.80010 | 35141 ft | 521 kts | 153° |
| 2026-05-04 13:38 | 40.16378 | 11.84326 | 35141 ft | 521 kts | 153° |
| 2026-05-04 13:39 | 40.09691 | 11.88654 | 35141 ft | 521 kts | 153° |
| 2026-05-04 13:39 | 40.03045 | 11.92945 | 35141 ft | 521 kts | 153° |
| 2026-05-04 13:40 | 39.96360 | 11.97255 | 35141 ft | 521 kts | 153° |
| 2026-05-04 13:40 | 39.89687 | 12.01548 | 35140 ft | 521 kts | 153° |
| 2026-05-04 13:41 | 39.83040 | 12.05795 | 35140 ft | 521 kts | 153° |
| 2026-05-04 13:41 | 39.76393 | 12.10037 | 35140 ft | 521 kts | 153° |
| 2026-05-04 13:42 | 39.66400 | 12.16414 | 35134 ft | 521 kts | 153° |
| 2026-05-04 13:42 | 39.59719 | 12.20671 | 35127 ft | 521 kts | 153° |
| 2026-05-04 13:43 | 39.53065 | 12.24900 | 35121 ft | 521 kts | 153° |
| 2026-05-04 13:43 | 39.46354 | 12.29156 | 35117 ft | 521 kts | 153° |
| 2026-05-04 13:44 | 39.39693 | 12.33372 | 35115 ft | 521 kts | 153° |
| 2026-05-04 13:44 | 39.33035 | 12.37577 | 35114 ft | 521 kts | 153° |
| 2026-05-04 13:45 | 39.26354 | 12.41787 | 35116 ft | 521 kts | 153° |
| 2026-05-04 13:45 | 39.19651 | 12.46004 | 35117 ft | 521 kts | 153° |
| 2026-05-04 13:46 | 39.13000 | 12.50178 | 35117 ft | 521 kts | 153° |
| 2026-05-04 13:46 | 39.06350 | 12.54341 | 35115 ft | 521 kts | 153° |
| 2026-05-04 13:47 | 38.99683 | 12.58506 | 35115 ft | 521 kts | 153° |
| 2026-05-04 13:47 | 38.93066 | 12.62628 | 35115 ft | 521 kts | 152° |
| 2026-05-04 13:48 | 38.86407 | 12.66772 | 35113 ft | 520 kts | 153° |
| 2026-05-04 13:48 | 38.79786 | 12.70899 | 35114 ft | 520 kts | 153° |
| 2026-05-04 13:49 | 38.73114 | 12.75041 | 35115 ft | 520 kts | 153° |
| 2026-05-04 13:49 | 38.66481 | 12.79144 | 35115 ft | 520 kts | 153° |
| 2026-05-04 13:50 | 38.59864 | 12.83229 | 35115 ft | 520 kts | 153° |
| 2026-05-04 13:50 | 38.53228 | 12.87316 | 35115 ft | 521 kts | 153° |
| 2026-05-04 13:51 | 38.46628 | 12.91371 | 35115 ft | 520 kts | 153° |
| 2026-05-04 13:51 | 38.39970 | 12.95455 | 35114 ft | 520 kts | 153° |
| 2026-05-04 13:52 | 38.30071 | 13.01506 | 35112 ft | 520 kts | 152° |
| 2026-05-04 13:53 | 38.23499 | 13.05516 | 35113 ft | 520 kts | 152° |
| 2026-05-04 13:53 | 38.16934 | 13.09514 | 35113 ft | 521 kts | 152° |
| 2026-05-04 13:54 | 38.07076 | 13.15497 | 35101 ft | 499 kts | 151° |
| 2026-05-04 13:54 | 38.00735 | 13.19024 | 35087 ft | 499 kts | 166° |
| 2026-05-04 13:55 | 37.97191 | 13.19396 | 35100 ft | 503 kts | 188° |
| 2026-05-04 13:55 | 37.90951 | 13.15886 | 35107 ft | 482 kts | 232° |
| 2026-05-04 13:55 | 37.88984 | 13.12485 | 35113 ft | 461 kts | 254° |
| 2026-05-04 13:56 | 37.88122 | 13.08636 | 35120 ft | 438 kts | 275° |
| 2026-05-04 13:56 | 37.88382 | 13.04903 | 35133 ft | 419 kts | 293° |
| 2026-05-04 13:56 | 37.91146 | 12.98508 | 35123 ft | 404 kts | 318° |
| 2026-05-04 13:57 | 37.93332 | 12.96229 | 35120 ft | 400 kts | 331° |
| 2026-05-04 13:57 | 37.95916 | 12.94767 | 35117 ft | 398 kts | 345° |
| 2026-05-04 13:58 | 38.04158 | 12.96278 | 35112 ft | 416 kts | 28° |
| 2026-05-04 13:58 | 38.07989 | 13.02188 | 35110 ft | 446 kts | 61° |
| 2026-05-04 13:58 | 38.08676 | 13.06131 | 35107 ft | 466 kts | 79° |
| 2026-05-04 13:59 | 38.08300 | 13.10359 | 35105 ft | 487 kts | 99° |
| 2026-05-04 13:59 | 38.06782 | 13.14311 | 35107 ft | 507 kts | 120° |
| 2026-05-04 13:59 | 38.00977 | 13.19832 | 35121 ft | 531 kts | 154° |
| 2026-05-04 14:00 | 37.97468 | 13.21534 | 35121 ft | 533 kts | 158° |
| 2026-05-04 14:00 | 37.86933 | 13.26511 | 35115 ft | 532 kts | 156° |
| 2026-05-04 14:01 | 37.79996 | 13.30060 | 35090 ft | 530 kts | 155° |
| 2026-05-04 14:01 | 37.73117 | 13.33661 | 34032 ft | 529 kts | 154° |
| 2026-05-04 14:02 | 37.69659 | 13.35483 | 33084 ft | 533 kts | 155° |
| 2026-05-04 14:02 | 37.66205 | 13.37300 | 32173 ft | 536 kts | 155° |
| 2026-05-04 14:02 | 37.62683 | 13.39148 | 31324 ft | 537 kts | 155° |
| 2026-05-04 14:02 | 37.59161 | 13.40994 | 30470 ft | 537 kts | 155° |
| 2026-05-04 14:03 | 37.55658 | 13.42827 | 29606 ft | 537 kts | 155° |
| 2026-05-04 14:03 | 37.52127 | 13.44671 | 28687 ft | 538 kts | 156° |
| 2026-05-04 14:03 | 37.48593 | 13.46514 | 27728 ft | 538 kts | 156° |
| 2026-05-04 14:03 | 37.45128 | 13.48318 | 26773 ft | 538 kts | 156° |
| 2026-05-04 14:04 | 37.38051 | 13.51998 | 24957 ft | 533 kts | 156° |
| 2026-05-04 14:04 | 37.34576 | 13.53803 | 24321 ft | 525 kts | 156° |
| 2026-05-04 14:04 | 37.31184 | 13.55562 | 23742 ft | 518 kts | 156° |
| 2026-05-04 14:05 | 37.24439 | 13.59058 | 22604 ft | 504 kts | 156° |
| 2026-05-04 14:05 | 37.21152 | 13.60759 | 22055 ft | 498 kts | 156° |
| 2026-05-04 14:05 | 37.17868 | 13.62458 | 21502 ft | 491 kts | 156° |
| 2026-05-04 14:06 | 37.14634 | 13.64129 | 20945 ft | 486 kts | 156° |
| 2026-05-04 14:06 | 37.11449 | 13.65775 | 20388 ft | 480 kts | 157° |
| 2026-05-04 14:06 | 37.08321 | 13.67402 | 19837 ft | 475 kts | 157° |
| 2026-05-04 14:06 | 37.05190 | 13.69030 | 19271 ft | 470 kts | 158° |
| 2026-05-04 14:07 | 37.02113 | 13.70624 | 18711 ft | 466 kts | 158° |
| 2026-05-04 14:07 | 36.99071 | 13.72194 | 18149 ft | 461 kts | 158° |
| 2026-05-04 14:07 | 36.96057 | 13.73747 | 17590 ft | 457 kts | 158° |
| 2026-05-04 14:07 | 36.93051 | 13.75291 | 17031 ft | 452 kts | 158° |
| 2026-05-04 14:08 | 36.90064 | 13.76823 | 16479 ft | 447 kts | 158° |
| 2026-05-04 14:08 | 36.87133 | 13.78321 | 15940 ft | 442 kts | 159° |
| 2026-05-04 14:08 | 36.84198 | 13.79816 | 15403 ft | 437 kts | 159° |
| 2026-05-04 14:08 | 36.81348 | 13.81269 | 14874 ft | 433 kts | 159° |
| 2026-05-04 14:09 | 36.75679 | 13.84162 | 13814 ft | 424 kts | 159° |
| 2026-05-04 14:09 | 36.72924 | 13.85569 | 13298 ft | 420 kts | 159° |
| 2026-05-04 14:10 | 36.67620 | 13.88274 | 12317 ft | 412 kts | 159° |
| 2026-05-04 14:10 | 36.65131 | 13.89542 | 11842 ft | 408 kts | 159° |
| 2026-05-04 14:10 | 36.62425 | 13.90919 | 11323 ft | 404 kts | 159° |
| 2026-05-04 14:10 | 36.59779 | 13.92266 | 10822 ft | 400 kts | 159° |
| 2026-05-04 14:11 | 36.57166 | 13.93596 | 10647 ft | 385 kts | 159° |
| 2026-05-04 14:11 | 36.52291 | 13.96076 | 10407 ft | 355 kts | 159° |
| 2026-05-04 14:11 | 36.50014 | 13.97232 | 10315 ft | 340 kts | 159° |
| 2026-05-04 14:12 | 36.47788 | 13.98364 | 10241 ft | 326 kts | 160° |
| 2026-05-04 14:12 | 36.45691 | 13.99428 | 10096 ft | 315 kts | 160° |
| 2026-05-04 14:12 | 36.41603 | 14.01492 | 9562 ft | 303 kts | 160° |
| 2026-05-04 14:13 | 36.39630 | 14.02490 | 9189 ft | 295 kts | 160° |
| 2026-05-04 14:13 | 36.37697 | 14.03465 | 8934 ft | 290 kts | 160° |
| 2026-05-04 14:13 | 36.35804 | 14.04426 | 8658 ft | 285 kts | 161° |
| 2026-05-04 14:13 | 36.33937 | 14.05366 | 8381 ft | 281 kts | 161° |
| 2026-05-04 14:14 | 36.32094 | 14.06297 | 8109 ft | 275 kts | 162° |
| 2026-05-04 14:14 | 36.28621 | 14.08054 | 7401 ft | 250 kts | 162° |
| 2026-05-04 14:14 | 36.27000 | 14.08870 | 7165 ft | 244 kts | 162° |
| 2026-05-04 14:15 | 36.23821 | 14.10462 | 6679 ft | 235 kts | 162° |
| 2026-05-04 14:15 | 36.20805 | 14.11978 | 6235 ft | 225 kts | 162° |
| 2026-05-04 14:16 | 36.17930 | 14.13424 | 5807 ft | 215 kts | 162° |
| 2026-05-04 14:16 | 36.16537 | 14.14123 | 5593 ft | 210 kts | 162° |
| 2026-05-04 14:17 | 36.13800 | 14.15494 | 5113 ft | 207 kts | 162° |
| 2026-05-04 14:17 | 36.12457 | 14.16167 | 4878 ft | 201 kts | 162° |
| 2026-05-04 14:17 | 36.09889 | 14.17457 | 4372 ft | 189 kts | 162° |
| 2026-05-04 14:18 | 36.08665 | 14.18070 | 4123 ft | 184 kts | 162° |
| 2026-05-04 14:18 | 36.06546 | 14.19757 | 3719 ft | 186 kts | 126° |
| 2026-05-04 14:19 | 36.05358 | 14.22635 | 3444 ft | 181 kts | 123° |
| 2026-05-04 14:19 | 36.04683 | 14.23945 | 3289 ft | 167 kts | 131° |
| 2026-05-04 14:19 | 36.03935 | 14.25073 | 3208 ft | 167 kts | 135° |
| 2026-05-04 14:19 | 36.03141 | 14.26164 | 3178 ft | 168 kts | 137° |
| 2026-05-04 14:20 | 36.02316 | 14.27253 | 3133 ft | 168 kts | 138° |
| 2026-05-04 14:20 | 36.01497 | 14.28302 | 3060 ft | 168 kts | 139° |
| 2026-05-04 14:20 | 36.00660 | 14.29354 | 3051 ft | 165 kts | 139° |
| 2026-05-04 14:21 | 35.98975 | 14.31437 | 3081 ft | 169 kts | 139° |
| 2026-05-04 14:21 | 35.98124 | 14.32483 | 3086 ft | 166 kts | 140° |
| 2026-05-04 14:21 | 35.97288 | 14.33509 | 3112 ft | 169 kts | 139° |
| 2026-05-04 14:21 | 35.96426 | 14.34567 | 3125 ft | 170 kts | 139° |
| 2026-05-04 14:22 | 35.95603 | 14.35582 | 3023 ft | 162 kts | 140° |
| 2026-05-04 14:22 | 35.94803 | 14.36569 | 2803 ft | 152 kts | 140° |
| 2026-05-04 14:22 | 35.94065 | 14.37479 | 2596 ft | 143 kts | 140° |
| 2026-05-04 14:22 | 35.93345 | 14.38366 | 2407 ft | 143 kts | 140° |
| 2026-05-04 14:23 | 35.91897 | 14.40148 | 2054 ft | 146 kts | 139° |
| 2026-05-04 14:23 | 35.91179 | 14.41038 | 1845 ft | 145 kts | 139° |
| 2026-05-04 14:23 | 35.90462 | 14.41928 | 1629 ft | 144 kts | 139° |
| 2026-05-04 14:24 | 35.89743 | 14.42832 | 1432 ft | 144 kts | 138° |
| 2026-05-04 14:24 | 35.89046 | 14.43700 | 1267 ft | 140 kts | 139° |
| 2026-05-04 14:24 | 35.88337 | 14.44587 | 1041 ft | 140 kts | 137° |
| 2026-05-04 14:24 | 35.87641 | 14.45450 | 821 ft | 139 kts | 138° |
| 2026-05-04 14:25 | 35.86947 | 14.46283 | 696 ft | 138 kts | 138° |
| 2026-05-04 14:25 | 35.85524 | 14.48030 | 360 ft | 139 kts | 137° |
| 2026-05-04 14:25 | 35.84892 | 14.48806 | 306 ft | 98 kts | 135° |
| 2026-05-04 14:26 | 35.84552 | 14.49235 | 306 ft | 57 kts | 135° |
| 2026-05-04 14:26 | 35.84461 | 14.49543 | 306 ft | 22 kts | 65° |
| 2026-05-04 14:26 | 35.84581 | 14.49539 | 306 ft | 17 kts | 0° |
| 2026-05-04 14:26 | 35.84658 | 14.49574 | 306 ft | 0 kts | 5° |
| 2026-05-04 14:27 | 35.84660 | 14.49574 | 306 ft | 1 kts | 1° |
| 2026-05-04 14:27 | 35.84689 | 14.49569 | 306 ft | 5 kts | 340° |
| 2026-05-04 14:27 | 35.84723 | 14.49534 | 306 ft | 8 kts | 313° |
| 2026-05-04 14:27 | 35.84764 | 14.49480 | 306 ft | 9 kts | 313° |
| 2026-05-04 14:28 | 35.84813 | 14.49419 | 306 ft | 10 kts | 315° |
| 2026-05-04 14:28 | 35.84866 | 14.49357 | 306 ft | 9 kts | 322° |
| 2026-05-04 14:28 | 35.84929 | 14.49336 | 306 ft | 7 kts | 358° |
| 2026-05-04 14:28 | 35.84956 | 14.49336 | 306 ft | 0 kts | 359° |